sensor_id;sensor_type;location;lat;lon;timestamp;noise_LAeq;noise_LA_min;noise_LA_max;noise_LA01;noise_LA95
67318;Laerm;57664;51.436;5.980;2023-02-11T00:00:07;41.65;40.73;42.66;;
67318;Laerm;57664;51.436;5.980;2023-02-11T00:00:17;41.64;40.65;42.45;;
67318;Laerm;57664;51.436;5.980;2023-02-11T00:00:28;41.68;40.87;42.67;;
67318;Laerm;57664;51.436;5.980;2023-02-11T00:00:39;41.65;40.92;42.56;;
67318;Laerm;57664;51.436;5.980;2023-02-11T00:00:49;41.65;40.79;42.70;;
67318;Laerm;57664;51.436;5.980;2023-02-11T00:01:04;41.64;40.84;42.42;;
67318;Laerm;57664;51.436;5.980;2023-02-11T00:01:28;41.61;40.64;42.50;;
67318;Laerm;57664;51.436;5.980;2023-02-11T00:01:40;41.65;40.65;42.67;;
67318;Laerm;57664;51.436;5.980;2023-02-11T00:01:50;41.67;40.87;42.62;;
67318;Laerm;57664;51.436;5.980;2023-02-11T00:02:00;41.64;40.62;42.53;;
67318;Laerm;57664;51.436;5.980;2023-02-11T00:02:11;41.64;40.77;42.55;;
67318;Laerm;57664;51.436;5.980;2023-02-11T00:02:21;41.65;40.52;42.38;;
67318;Laerm;57664;51.436;5.980;2023-02-11T00:02:32;41.68;40.54;42.58;;
67318;Laerm;57664;51.436;5.980;2023-02-11T00:02:43;41.65;40.58;42.45;;
67318;Laerm;57664;51.436;5.980;2023-02-11T00:02:53;41.63;40.76;43.12;;
67318;Laerm;57664;51.436;5.980;2023-02-11T00:03:04;41.65;40.79;42.40;;
67318;Laerm;57664;51.436;5.980;2023-02-11T00:03:14;41.70;40.73;42.45;;
67318;Laerm;57664;51.436;5.980;2023-02-11T00:03:25;41.69;40.86;42.70;;
67318;Laerm;57664;51.436;5.980;2023-02-11T00:03:36;41.66;40.86;42.64;;
67318;Laerm;57664;51.436;5.980;2023-02-11T00:03:47;41.67;40.79;42.46;;
67318;Laerm;57664;51.436;5.980;2023-02-11T00:03:59;41.65;40.76;42.43;;
67318;Laerm;57664;51.436;5.980;2023-02-11T00:04:10;41.65;40.83;42.59;;
67318;Laerm;57664;51.436;5.980;2023-02-11T00:04:21;41.71;40.97;42.69;;
67318;Laerm;57664;51.436;5.980;2023-02-11T00:04:31;41.66;40.67;42.81;;
67318;Laerm;57664;51.436;5.980;2023-02-11T00:04:42;41.67;40.69;42.43;;
67318;Laerm;57664;51.436;5.980;2023-02-11T00:04:52;41.68;40.97;42.50;;
67318;Laerm;57664;51.436;5.980;2023-02-11T00:05:03;41.64;40.50;42.92;;
67318;Laerm;57664;51.436;5.980;2023-02-11T00:05:13;41.68;40.55;42.62;;
67318;Laerm;57664;51.436;5.980;2023-02-11T00:05:24;41.68;40.79;42.60;;
67318;Laerm;57664;51.436;5.980;2023-02-11T00:05:34;41.67;40.68;42.42;;
67318;Laerm;57664;51.436;5.980;2023-02-11T00:05:55;41.68;40.81;42.56;;
67318;Laerm;57664;51.436;5.980;2023-02-11T00:06:06;41.67;40.72;42.66;;
67318;Laerm;57664;51.436;5.980;2023-02-11T00:06:19;41.69;40.83;42.93;;
67318;Laerm;57664;51.436;5.980;2023-02-11T00:06:31;41.65;40.74;42.53;;
67318;Laerm;57664;51.436;5.980;2023-02-11T00:06:41;41.69;40.81;42.63;;
67318;Laerm;57664;51.436;5.980;2023-02-11T00:06:52;41.65;40.79;42.52;;
67318;Laerm;57664;51.436;5.980;2023-02-11T00:07:05;41.68;40.76;42.93;;
67318;Laerm;57664;51.436;5.980;2023-02-11T00:07:15;41.67;40.62;43.26;;
67318;Laerm;57664;51.436;5.980;2023-02-11T00:07:27;41.68;40.81;42.47;;
67318;Laerm;57664;51.436;5.980;2023-02-11T00:07:38;41.66;40.58;42.49;;
67318;Laerm;57664;51.436;5.980;2023-02-11T00:07:49;41.66;40.68;42.51;;
67318;Laerm;57664;51.436;5.980;2023-02-11T00:07:59;41.66;40.58;42.73;;
67318;Laerm;57664;51.436;5.980;2023-02-11T00:08:09;41.69;40.75;42.60;;
67318;Laerm;57664;51.436;5.980;2023-02-11T00:08:26;41.68;40.82;42.46;;
67318;Laerm;57664;51.436;5.980;2023-02-11T00:08:36;41.69;40.90;42.88;;
67318;Laerm;57664;51.436;5.980;2023-02-11T00:08:46;41.69;40.71;42.42;;
67318;Laerm;57664;51.436;5.980;2023-02-11T00:08:57;41.70;40.63;42.69;;
67318;Laerm;57664;51.436;5.980;2023-02-11T00:09:10;41.68;40.78;42.63;;
67318;Laerm;57664;51.436;5.980;2023-02-11T00:09:20;41.69;40.87;42.64;;
67318;Laerm;57664;51.436;5.980;2023-02-11T00:09:30;41.67;40.81;42.50;;
67318;Laerm;57664;51.436;5.980;2023-02-11T00:09:41;41.67;40.81;42.96;;
67318;Laerm;57664;51.436;5.980;2023-02-11T00:09:51;41.66;40.78;42.53;;
67318;Laerm;57664;51.436;5.980;2023-02-11T00:10:02;41.67;40.82;42.59;;
67318;Laerm;57664;51.436;5.980;2023-02-11T00:10:13;41.65;40.86;42.69;;
67318;Laerm;57664;51.436;5.980;2023-02-11T00:10:24;41.66;40.57;42.47;;
67318;Laerm;57664;51.436;5.980;2023-02-11T00:10:34;41.64;40.77;42.49;;
67318;Laerm;57664;51.436;5.980;2023-02-11T00:10:45;41.66;40.88;42.46;;
67318;Laerm;57664;51.436;5.980;2023-02-11T00:10:56;41.68;40.78;42.61;;
67318;Laerm;57664;51.436;5.980;2023-02-11T00:11:08;41.68;40.77;42.62;;
67318;Laerm;57664;51.436;5.980;2023-02-11T00:11:22;41.65;40.70;42.66;;
67318;Laerm;57664;51.436;5.980;2023-02-11T00:11:35;41.65;40.68;42.78;;
67318;Laerm;57664;51.436;5.980;2023-02-11T00:11:45;41.66;40.82;42.61;;
67318;Laerm;57664;51.436;5.980;2023-02-11T00:11:55;41.66;40.80;42.59;;
67318;Laerm;57664;51.436;5.980;2023-02-11T00:12:06;41.67;40.72;42.54;;
67318;Laerm;57664;51.436;5.980;2023-02-11T00:12:16;41.71;40.73;42.55;;
67318;Laerm;57664;51.436;5.980;2023-02-11T00:12:28;41.68;40.65;42.57;;
67318;Laerm;57664;51.436;5.980;2023-02-11T00:12:39;41.65;40.77;42.61;;
67318;Laerm;57664;51.436;5.980;2023-02-11T00:12:49;41.63;40.68;42.44;;
67318;Laerm;57664;51.436;5.980;2023-02-11T00:12:59;41.68;40.89;42.83;;
67318;Laerm;57664;51.436;5.980;2023-02-11T00:13:10;41.67;40.94;42.82;;
67318;Laerm;57664;51.436;5.980;2023-02-11T00:13:21;41.68;40.80;42.58;;
67318;Laerm;57664;51.436;5.980;2023-02-11T00:13:31;41.66;40.80;42.49;;
67318;Laerm;57664;51.436;5.980;2023-02-11T00:13:42;41.67;40.74;44.08;;
67318;Laerm;57664;51.436;5.980;2023-02-11T00:13:52;41.62;40.56;42.48;;
67318;Laerm;57664;51.436;5.980;2023-02-11T00:14:04;41.65;40.73;42.61;;
67318;Laerm;57664;51.436;5.980;2023-02-11T00:14:14;41.67;40.53;42.59;;
67318;Laerm;57664;51.436;5.980;2023-02-11T00:14:24;41.66;40.78;42.51;;
67318;Laerm;57664;51.436;5.980;2023-02-11T00:14:35;41.66;40.83;42.48;;
67318;Laerm;57664;51.436;5.980;2023-02-11T00:14:45;41.69;40.81;42.64;;
67318;Laerm;57664;51.436;5.980;2023-02-11T00:14:56;41.67;40.87;42.57;;
67318;Laerm;57664;51.436;5.980;2023-02-11T00:15:06;41.65;40.70;42.49;;
67318;Laerm;57664;51.436;5.980;2023-02-11T00:15:17;41.65;40.71;42.59;;
67318;Laerm;57664;51.436;5.980;2023-02-11T00:15:27;41.68;40.98;42.59;;
67318;Laerm;57664;51.436;5.980;2023-02-11T00:15:38;41.63;40.77;42.52;;
67318;Laerm;57664;51.436;5.980;2023-02-11T00:15:48;41.67;40.59;42.45;;
67318;Laerm;57664;51.436;5.980;2023-02-11T00:15:58;41.67;40.86;42.53;;
67318;Laerm;57664;51.436;5.980;2023-02-11T00:16:09;41.64;40.34;42.38;;
67318;Laerm;57664;51.436;5.980;2023-02-11T00:16:20;41.67;40.54;42.68;;
67318;Laerm;57664;51.436;5.980;2023-02-11T00:16:30;41.65;40.75;42.46;;
67318;Laerm;57664;51.436;5.980;2023-02-11T00:16:41;41.67;40.58;42.43;;
67318;Laerm;57664;51.436;5.980;2023-02-11T00:16:51;41.66;40.72;42.46;;
67318;Laerm;57664;51.436;5.980;2023-02-11T00:17:01;41.66;40.87;42.57;;
67318;Laerm;57664;51.436;5.980;2023-02-11T00:17:12;41.67;40.81;42.37;;
67318;Laerm;57664;51.436;5.980;2023-02-11T00:17:24;41.65;40.93;42.55;;
67318;Laerm;57664;51.436;5.980;2023-02-11T00:17:34;41.61;40.29;42.53;;
67318;Laerm;57664;51.436;5.980;2023-02-11T00:17:44;41.62;40.71;42.63;;
67318;Laerm;57664;51.436;5.980;2023-02-11T00:17:55;41.68;40.81;42.60;;
67318;Laerm;57664;51.436;5.980;2023-02-11T00:18:05;41.63;40.77;42.48;;
67318;Laerm;57664;51.436;5.980;2023-02-11T00:18:15;41.64;40.69;42.52;;
67318;Laerm;57664;51.436;5.980;2023-02-11T00:18:26;41.63;40.86;42.31;;
67318;Laerm;57664;51.436;5.980;2023-02-11T00:18:36;41.68;40.64;42.46;;
67318;Laerm;57664;51.436;5.980;2023-02-11T00:18:47;41.65;40.75;43.53;;
67318;Laerm;57664;51.436;5.980;2023-02-11T00:19:00;41.65;40.69;42.58;;
67318;Laerm;57664;51.436;5.980;2023-02-11T00:19:10;41.66;40.55;42.59;;
67318;Laerm;57664;51.436;5.980;2023-02-11T00:19:21;41.66;40.73;42.55;;
67318;Laerm;57664;51.436;5.980;2023-02-11T00:19:31;41.64;40.70;42.39;;
67318;Laerm;57664;51.436;5.980;2023-02-11T00:19:41;41.66;40.68;42.60;;
67318;Laerm;57664;51.436;5.980;2023-02-11T00:19:52;41.63;40.87;42.51;;
67318;Laerm;57664;51.436;5.980;2023-02-11T00:20:03;41.65;40.75;42.38;;
67318;Laerm;57664;51.436;5.980;2023-02-11T00:20:13;41.64;40.70;42.62;;
67318;Laerm;57664;51.436;5.980;2023-02-11T00:20:24;41.63;40.54;42.54;;
67318;Laerm;57664;51.436;5.980;2023-02-11T00:20:34;41.65;40.83;42.48;;
67318;Laerm;57664;51.436;5.980;2023-02-11T00:20:47;41.63;40.74;43.10;;
67318;Laerm;57664;51.436;5.980;2023-02-11T00:20:57;41.64;40.60;42.52;;
67318;Laerm;57664;51.436;5.980;2023-02-11T00:21:09;41.63;40.67;42.41;;
67318;Laerm;57664;51.436;5.980;2023-02-11T00:21:21;41.64;40.43;43.13;;
67318;Laerm;57664;51.436;5.980;2023-02-11T00:21:32;41.64;40.57;42.56;;
67318;Laerm;57664;51.436;5.980;2023-02-11T00:21:43;41.65;40.67;42.47;;
67318;Laerm;57664;51.436;5.980;2023-02-11T00:21:53;41.66;40.71;42.90;;
67318;Laerm;57664;51.436;5.980;2023-02-11T00:22:03;41.64;40.74;42.52;;
67318;Laerm;57664;51.436;5.980;2023-02-11T00:22:20;41.66;40.56;42.43;;
67318;Laerm;57664;51.436;5.980;2023-02-11T00:22:32;41.64;40.64;42.72;;
67318;Laerm;57664;51.436;5.980;2023-02-11T00:22:42;41.64;40.74;42.62;;
67318;Laerm;57664;51.436;5.980;2023-02-11T00:22:52;41.59;40.80;42.35;;
67318;Laerm;57664;51.436;5.980;2023-02-11T00:23:03;41.66;40.78;42.46;;
67318;Laerm;57664;51.436;5.980;2023-02-11T00:23:13;41.67;40.55;42.69;;
67318;Laerm;57664;51.436;5.980;2023-02-11T00:23:23;41.65;40.51;42.58;;
67318;Laerm;57664;51.436;5.980;2023-02-11T00:23:36;41.66;40.59;42.49;;
67318;Laerm;57664;51.436;5.980;2023-02-11T00:23:47;41.65;40.80;42.60;;
67318;Laerm;57664;51.436;5.980;2023-02-11T00:23:58;41.70;40.92;43.25;;
67318;Laerm;57664;51.436;5.980;2023-02-11T00:24:10;41.65;40.66;42.57;;
67318;Laerm;57664;51.436;5.980;2023-02-11T00:24:21;41.67;40.57;42.55;;
67318;Laerm;57664;51.436;5.980;2023-02-11T00:24:31;41.64;40.79;42.48;;
67318;Laerm;57664;51.436;5.980;2023-02-11T00:24:41;41.65;40.84;42.54;;
67318;Laerm;57664;51.436;5.980;2023-02-11T00:24:52;41.69;40.58;42.57;;
67318;Laerm;57664;51.436;5.980;2023-02-11T00:25:03;41.66;40.78;42.53;;
67318;Laerm;57664;51.436;5.980;2023-02-11T00:25:13;41.66;40.65;42.87;;
67318;Laerm;57664;51.436;5.980;2023-02-11T00:25:23;41.64;40.62;42.49;;
67318;Laerm;57664;51.436;5.980;2023-02-11T00:25:37;41.69;40.88;42.67;;
67318;Laerm;57664;51.436;5.980;2023-02-11T00:25:47;41.66;40.59;42.51;;
67318;Laerm;57664;51.436;5.980;2023-02-11T00:25:58;41.66;40.70;42.53;;
67318;Laerm;57664;51.436;5.980;2023-02-11T00:26:12;41.67;40.22;42.55;;
67318;Laerm;57664;51.436;5.980;2023-02-11T00:26:24;41.65;40.67;42.52;;
67318;Laerm;57664;51.436;5.980;2023-02-11T00:26:35;41.64;40.56;42.46;;
67318;Laerm;57664;51.436;5.980;2023-02-11T00:26:45;41.62;40.80;42.48;;
67318;Laerm;57664;51.436;5.980;2023-02-11T00:27:06;41.65;40.70;42.52;;
67318;Laerm;57664;51.436;5.980;2023-02-11T00:27:17;41.63;40.59;42.47;;
67318;Laerm;57664;51.436;5.980;2023-02-11T00:27:27;41.64;40.37;42.58;;
67318;Laerm;57664;51.436;5.980;2023-02-11T00:27:37;41.63;40.57;42.53;;
67318;Laerm;57664;51.436;5.980;2023-02-11T00:27:48;41.62;40.66;42.43;;
67318;Laerm;57664;51.436;5.980;2023-02-11T00:27:58;41.61;40.77;42.28;;
67318;Laerm;57664;51.436;5.980;2023-02-11T00:28:09;41.63;40.73;42.45;;
67318;Laerm;57664;51.436;5.980;2023-02-11T00:28:20;41.63;40.51;42.51;;
67318;Laerm;57664;51.436;5.980;2023-02-11T00:28:30;41.59;40.70;42.36;;
67318;Laerm;57664;51.436;5.980;2023-02-11T00:28:41;41.64;40.34;42.48;;
67318;Laerm;57664;51.436;5.980;2023-02-11T00:28:52;41.62;40.59;42.67;;
67318;Laerm;57664;51.436;5.980;2023-02-11T00:29:03;41.63;40.78;42.55;;
67318;Laerm;57664;51.436;5.980;2023-02-11T00:29:13;41.66;40.69;42.55;;
67318;Laerm;57664;51.436;5.980;2023-02-11T00:29:24;41.60;40.57;42.36;;
67318;Laerm;57664;51.436;5.980;2023-02-11T00:29:35;41.62;40.59;43.28;;
67318;Laerm;57664;51.436;5.980;2023-02-11T00:29:45;41.60;40.73;42.57;;
67318;Laerm;57664;51.436;5.980;2023-02-11T00:29:55;41.59;40.42;42.39;;
67318;Laerm;57664;51.436;5.980;2023-02-11T00:30:06;41.62;40.73;42.52;;
67318;Laerm;57664;51.436;5.980;2023-02-11T00:30:16;41.62;40.59;42.51;;
67318;Laerm;57664;51.436;5.980;2023-02-11T00:30:27;41.61;40.62;42.34;;
67318;Laerm;57664;51.436;5.980;2023-02-11T00:30:37;41.62;40.78;42.45;;
67318;Laerm;57664;51.436;5.980;2023-02-11T00:30:54;41.59;40.75;42.36;;
67318;Laerm;57664;51.436;5.980;2023-02-11T00:31:06;41.61;40.63;42.90;;
67318;Laerm;57664;51.436;5.980;2023-02-11T00:31:17;41.61;40.55;42.70;;
67318;Laerm;57664;51.436;5.980;2023-02-11T00:31:28;41.59;40.52;42.59;;
67318;Laerm;57664;51.436;5.980;2023-02-11T00:31:38;41.57;40.78;42.25;;
67318;Laerm;57664;51.436;5.980;2023-02-11T00:31:49;41.58;40.25;42.57;;
67318;Laerm;57664;51.436;5.980;2023-02-11T00:31:59;41.59;40.66;42.32;;
67318;Laerm;57664;51.436;5.980;2023-02-11T00:32:14;41.60;40.58;42.59;;
67318;Laerm;57664;51.436;5.980;2023-02-11T00:32:24;41.62;40.52;42.46;;
67318;Laerm;57664;51.436;5.980;2023-02-11T00:32:35;41.61;40.68;42.66;;
67318;Laerm;57664;51.436;5.980;2023-02-11T00:32:46;41.61;40.75;42.55;;
67318;Laerm;57664;51.436;5.980;2023-02-11T00:32:56;41.62;40.74;42.98;;
67318;Laerm;57664;51.436;5.980;2023-02-11T00:33:07;41.63;40.51;43.17;;
67318;Laerm;57664;51.436;5.980;2023-02-11T00:33:17;41.61;40.77;42.69;;
67318;Laerm;57664;51.436;5.980;2023-02-11T00:33:28;41.61;40.60;42.44;;
67318;Laerm;57664;51.436;5.980;2023-02-11T00:33:46;41.61;40.74;42.36;;
67318;Laerm;57664;51.436;5.980;2023-02-11T00:34:00;41.60;40.77;42.50;;
67318;Laerm;57664;51.436;5.980;2023-02-11T00:34:11;41.60;40.82;42.43;;
67318;Laerm;57664;51.436;5.980;2023-02-11T00:34:21;41.60;40.81;42.67;;
67318;Laerm;57664;51.436;5.980;2023-02-11T00:34:32;41.61;40.83;42.38;;
67318;Laerm;57664;51.436;5.980;2023-02-11T00:34:42;41.59;40.47;42.31;;
67318;Laerm;57664;51.436;5.980;2023-02-11T00:34:53;41.61;40.71;42.74;;
67318;Laerm;57664;51.436;5.980;2023-02-11T00:35:04;41.61;40.72;43.27;;
67318;Laerm;57664;51.436;5.980;2023-02-11T00:35:15;41.60;40.67;42.75;;
67318;Laerm;57664;51.436;5.980;2023-02-11T00:35:25;41.59;40.92;42.34;;
67318;Laerm;57664;51.436;5.980;2023-02-11T00:35:36;41.62;40.76;42.61;;
67318;Laerm;57664;51.436;5.980;2023-02-11T00:35:46;41.62;40.77;42.53;;
67318;Laerm;57664;51.436;5.980;2023-02-11T00:35:57;41.58;40.45;43.28;;
67318;Laerm;57664;51.436;5.980;2023-02-11T00:36:08;41.60;40.68;42.53;;
67318;Laerm;57664;51.436;5.980;2023-02-11T00:36:21;41.60;40.66;42.53;;
67318;Laerm;57664;51.436;5.980;2023-02-11T00:36:32;41.59;40.74;42.59;;
67318;Laerm;57664;51.436;5.980;2023-02-11T00:36:42;41.61;40.62;42.45;;
67318;Laerm;57664;51.436;5.980;2023-02-11T00:36:53;41.59;40.91;42.43;;
67318;Laerm;57664;51.436;5.980;2023-02-11T00:37:04;41.59;40.47;42.60;;
67318;Laerm;57664;51.436;5.980;2023-02-11T00:37:15;41.59;40.58;42.27;;
67318;Laerm;57664;51.436;5.980;2023-02-11T00:37:27;41.58;40.69;42.47;;
67318;Laerm;57664;51.436;5.980;2023-02-11T00:37:37;41.59;40.66;42.54;;
67318;Laerm;57664;51.436;5.980;2023-02-11T00:37:47;41.62;40.78;42.76;;
67318;Laerm;57664;51.436;5.980;2023-02-11T00:37:58;41.61;40.72;42.41;;
67318;Laerm;57664;51.436;5.980;2023-02-11T00:38:08;41.57;40.62;42.45;;
67318;Laerm;57664;51.436;5.980;2023-02-11T00:38:19;41.59;40.70;42.59;;
67318;Laerm;57664;51.436;5.980;2023-02-11T00:38:29;41.57;40.65;42.43;;
67318;Laerm;57664;51.436;5.980;2023-02-11T00:38:41;41.57;40.62;42.54;;
67318;Laerm;57664;51.436;5.980;2023-02-11T00:38:52;41.56;40.66;42.43;;
67318;Laerm;57664;51.436;5.980;2023-02-11T00:39:03;41.59;40.85;42.70;;
67318;Laerm;57664;51.436;5.980;2023-02-11T00:39:13;41.60;40.67;42.48;;
67318;Laerm;57664;51.436;5.980;2023-02-11T00:39:24;41.58;40.75;42.55;;
67318;Laerm;57664;51.436;5.980;2023-02-11T00:39:35;41.59;40.86;42.60;;
67318;Laerm;57664;51.436;5.980;2023-02-11T00:39:46;41.55;40.60;42.53;;
67318;Laerm;57664;51.436;5.980;2023-02-11T00:39:56;41.59;40.59;42.33;;
67318;Laerm;57664;51.436;5.980;2023-02-11T00:40:06;41.61;40.61;42.36;;
67318;Laerm;57664;51.436;5.980;2023-02-11T00:40:17;41.58;40.75;42.52;;
67318;Laerm;57664;51.436;5.980;2023-02-11T00:40:27;41.60;40.39;43.06;;
67318;Laerm;57664;51.436;5.980;2023-02-11T00:40:37;41.55;40.72;42.23;;
67318;Laerm;57664;51.436;5.980;2023-02-11T00:40:48;41.58;40.66;42.41;;
67318;Laerm;57664;51.436;5.980;2023-02-11T00:40:58;41.58;40.76;42.36;;
67318;Laerm;57664;51.436;5.980;2023-02-11T00:41:09;41.56;40.59;42.26;;
67318;Laerm;57664;51.436;5.980;2023-02-11T00:41:19;41.56;40.65;42.51;;
67318;Laerm;57664;51.436;5.980;2023-02-11T00:41:30;41.60;40.82;42.36;;
67318;Laerm;57664;51.436;5.980;2023-02-11T00:41:40;41.58;40.51;42.36;;
67318;Laerm;57664;51.436;5.980;2023-02-11T00:41:51;41.61;40.52;42.56;;
67318;Laerm;57664;51.436;5.980;2023-02-11T00:42:01;41.57;40.72;42.37;;
67318;Laerm;57664;51.436;5.980;2023-02-11T00:42:13;41.58;40.28;42.72;;
67318;Laerm;57664;51.436;5.980;2023-02-11T00:42:24;41.57;40.53;42.85;;
67318;Laerm;57664;51.436;5.980;2023-02-11T00:42:34;41.59;40.66;42.63;;
67318;Laerm;57664;51.436;5.980;2023-02-11T00:42:44;41.55;40.81;43.26;;
67318;Laerm;57664;51.436;5.980;2023-02-11T00:42:55;41.56;40.82;42.36;;
67318;Laerm;57664;51.436;5.980;2023-02-11T00:43:05;41.56;40.49;42.41;;
67318;Laerm;57664;51.436;5.980;2023-02-11T00:43:15;41.57;40.70;42.42;;
67318;Laerm;57664;51.436;5.980;2023-02-11T00:43:26;41.59;40.58;42.94;;
67318;Laerm;57664;51.436;5.980;2023-02-11T00:43:36;41.55;40.40;42.45;;
67318;Laerm;57664;51.436;5.980;2023-02-11T00:43:48;41.53;40.64;42.23;;
67318;Laerm;57664;51.436;5.980;2023-02-11T00:43:59;41.52;40.66;42.48;;
67318;Laerm;57664;51.436;5.980;2023-02-11T00:44:10;41.55;40.64;42.36;;
67318;Laerm;57664;51.436;5.980;2023-02-11T00:44:20;41.52;40.60;42.33;;
67318;Laerm;57664;51.436;5.980;2023-02-11T00:44:30;41.53;40.62;42.37;;
67318;Laerm;57664;51.436;5.980;2023-02-11T00:44:41;41.57;40.73;42.37;;
67318;Laerm;57664;51.436;5.980;2023-02-11T00:44:51;41.55;40.63;42.39;;
67318;Laerm;57664;51.436;5.980;2023-02-11T00:45:02;41.52;40.57;42.36;;
67318;Laerm;57664;51.436;5.980;2023-02-11T00:45:12;41.57;40.70;42.30;;
67318;Laerm;57664;51.436;5.980;2023-02-11T00:45:23;41.55;40.59;42.69;;
67318;Laerm;57664;51.436;5.980;2023-02-11T00:45:34;41.56;40.52;42.80;;
67318;Laerm;57664;51.436;5.980;2023-02-11T00:45:46;41.54;40.74;42.45;;
67318;Laerm;57664;51.436;5.980;2023-02-11T00:45:57;41.56;40.58;42.44;;
67318;Laerm;57664;51.436;5.980;2023-02-11T00:46:07;41.53;40.61;42.40;;
67318;Laerm;57664;51.436;5.980;2023-02-11T00:46:18;41.52;40.63;42.30;;
67318;Laerm;57664;51.436;5.980;2023-02-11T00:46:30;41.54;40.69;42.38;;
67318;Laerm;57664;51.436;5.980;2023-02-11T00:46:41;41.56;40.72;42.29;;
67318;Laerm;57664;51.436;5.980;2023-02-11T00:46:52;41.56;40.36;42.86;;
67318;Laerm;57664;51.436;5.980;2023-02-11T00:47:03;41.52;40.40;42.33;;
67318;Laerm;57664;51.436;5.980;2023-02-11T00:47:14;41.53;40.69;42.46;;
67318;Laerm;57664;51.436;5.980;2023-02-11T00:47:25;41.58;40.75;42.97;;
67318;Laerm;57664;51.436;5.980;2023-02-11T00:47:35;41.56;40.60;42.45;;
67318;Laerm;57664;51.436;5.980;2023-02-11T00:47:46;41.54;40.53;42.39;;
67318;Laerm;57664;51.436;5.980;2023-02-11T00:47:57;41.54;40.68;42.23;;
67318;Laerm;57664;51.436;5.980;2023-02-11T00:48:07;41.57;40.81;42.24;;
67318;Laerm;57664;51.436;5.980;2023-02-11T00:48:17;41.56;40.82;42.43;;
67318;Laerm;57664;51.436;5.980;2023-02-11T00:48:28;41.54;40.79;43.11;;
67318;Laerm;57664;51.436;5.980;2023-02-11T00:48:39;41.55;40.41;42.38;;
67318;Laerm;57664;51.436;5.980;2023-02-11T00:48:49;41.54;40.84;42.79;;
67318;Laerm;57664;51.436;5.980;2023-02-11T00:49:02;41.56;40.47;42.36;;
67318;Laerm;57664;51.436;5.980;2023-02-11T00:49:13;41.56;40.64;42.69;;
67318;Laerm;57664;51.436;5.980;2023-02-11T00:49:24;41.55;40.71;42.40;;
67318;Laerm;57664;51.436;5.980;2023-02-11T00:49:34;41.54;40.68;42.35;;
67318;Laerm;57664;51.436;5.980;2023-02-11T00:49:46;41.55;40.52;42.46;;
67318;Laerm;57664;51.436;5.980;2023-02-11T00:49:57;41.54;40.60;42.36;;
67318;Laerm;57664;51.436;5.980;2023-02-11T00:50:10;41.52;40.44;42.36;;
67318;Laerm;57664;51.436;5.980;2023-02-11T00:50:20;41.49;40.78;42.18;;
67318;Laerm;57664;51.436;5.980;2023-02-11T00:50:31;41.52;40.74;42.23;;
67318;Laerm;57664;51.436;5.980;2023-02-11T00:50:57;41.50;40.60;42.34;;
67318;Laerm;57664;51.436;5.980;2023-02-11T00:51:09;41.55;40.30;42.97;;
67318;Laerm;57664;51.436;5.980;2023-02-11T00:51:19;41.52;40.51;42.48;;
67318;Laerm;57664;51.436;5.980;2023-02-11T00:51:30;41.54;40.74;42.48;;
67318;Laerm;57664;51.436;5.980;2023-02-11T00:51:41;41.53;40.54;42.24;;
67318;Laerm;57664;51.436;5.980;2023-02-11T00:51:51;41.52;40.70;42.50;;
67318;Laerm;57664;51.436;5.980;2023-02-11T00:52:02;41.55;40.70;42.38;;
67318;Laerm;57664;51.436;5.980;2023-02-11T00:52:12;41.54;40.67;42.55;;
67318;Laerm;57664;51.436;5.980;2023-02-11T00:52:23;41.54;40.64;42.28;;
67318;Laerm;57664;51.436;5.980;2023-02-11T00:52:34;41.54;40.73;42.54;;
67318;Laerm;57664;51.436;5.980;2023-02-11T00:52:45;41.53;40.57;42.37;;
67318;Laerm;57664;51.436;5.980;2023-02-11T00:52:55;41.54;40.37;42.38;;
67318;Laerm;57664;51.436;5.980;2023-02-11T00:53:06;41.49;40.41;42.37;;
67318;Laerm;57664;51.436;5.980;2023-02-11T00:53:17;41.56;40.74;42.52;;
67318;Laerm;57664;51.436;5.980;2023-02-11T00:53:27;41.52;40.71;42.28;;
67318;Laerm;57664;51.436;5.980;2023-02-11T00:53:38;41.50;40.47;42.60;;
67318;Laerm;57664;51.436;5.980;2023-02-11T00:53:49;41.54;40.69;42.92;;
67318;Laerm;57664;51.436;5.980;2023-02-11T00:54:00;41.52;40.42;42.55;;
67318;Laerm;57664;51.436;5.980;2023-02-11T00:54:11;41.53;40.48;42.27;;
67318;Laerm;57664;51.436;5.980;2023-02-11T00:54:21;41.53;40.54;42.51;;
67318;Laerm;57664;51.436;5.980;2023-02-11T00:54:32;41.53;40.50;42.26;;
67318;Laerm;57664;51.436;5.980;2023-02-11T00:54:44;41.52;40.65;42.28;;
67318;Laerm;57664;51.436;5.980;2023-02-11T00:54:54;41.50;40.80;42.22;;
67318;Laerm;57664;51.436;5.980;2023-02-11T00:55:04;41.53;40.68;42.56;;
67318;Laerm;57664;51.436;5.980;2023-02-11T00:55:15;41.52;40.59;42.37;;
67318;Laerm;57664;51.436;5.980;2023-02-11T00:55:26;41.52;40.65;42.39;;
67318;Laerm;57664;51.436;5.980;2023-02-11T00:55:36;41.52;40.77;42.51;;
67318;Laerm;57664;51.436;5.980;2023-02-11T00:55:47;41.55;40.67;42.36;;
67318;Laerm;57664;51.436;5.980;2023-02-11T00:55:57;41.53;40.70;42.34;;
67318;Laerm;57664;51.436;5.980;2023-02-11T00:56:08;41.52;40.79;42.45;;
67318;Laerm;57664;51.436;5.980;2023-02-11T00:56:18;41.54;40.41;42.47;;
67318;Laerm;57664;51.436;5.980;2023-02-11T00:56:29;41.54;40.53;42.40;;
67318;Laerm;57664;51.436;5.980;2023-02-11T00:56:40;41.51;40.60;42.54;;
67318;Laerm;57664;51.436;5.980;2023-02-11T00:56:50;41.54;40.78;42.42;;
67318;Laerm;57664;51.436;5.980;2023-02-11T00:57:04;41.52;40.62;42.97;;
67318;Laerm;57664;51.436;5.980;2023-02-11T00:57:14;41.51;40.72;42.53;;
67318;Laerm;57664;51.436;5.980;2023-02-11T00:57:27;41.53;40.72;42.43;;
67318;Laerm;57664;51.436;5.980;2023-02-11T00:57:37;41.55;40.45;42.57;;
67318;Laerm;57664;51.436;5.980;2023-02-11T00:57:48;41.52;40.73;42.27;;
67318;Laerm;57664;51.436;5.980;2023-02-11T00:57:59;41.54;40.61;42.22;;
67318;Laerm;57664;51.436;5.980;2023-02-11T00:58:10;41.54;40.45;42.28;;
67318;Laerm;57664;51.436;5.980;2023-02-11T00:58:21;41.52;40.60;42.53;;
67318;Laerm;57664;51.436;5.980;2023-02-11T00:58:32;41.48;40.57;42.32;;
67318;Laerm;57664;51.436;5.980;2023-02-11T00:58:43;41.54;40.75;42.59;;
67318;Laerm;57664;51.436;5.980;2023-02-11T00:58:54;41.54;40.35;42.38;;
67318;Laerm;57664;51.436;5.980;2023-02-11T00:59:06;41.54;40.61;42.23;;
67318;Laerm;57664;51.436;5.980;2023-02-11T00:59:17;41.52;40.66;42.31;;
67318;Laerm;57664;51.436;5.980;2023-02-11T00:59:28;41.50;40.27;42.26;;
67318;Laerm;57664;51.436;5.980;2023-02-11T00:59:38;41.52;40.48;42.24;;
67318;Laerm;57664;51.436;5.980;2023-02-11T00:59:49;41.42;40.45;42.37;;
67318;Laerm;57664;51.436;5.980;2023-02-11T01:00:00;41.43;40.52;42.27;;
67318;Laerm;57664;51.436;5.980;2023-02-11T01:00:11;41.50;40.66;42.20;;
67318;Laerm;57664;51.436;5.980;2023-02-11T01:00:23;41.50;40.57;42.45;;
67318;Laerm;57664;51.436;5.980;2023-02-11T01:00:33;41.50;40.60;42.36;;
67318;Laerm;57664;51.436;5.980;2023-02-11T01:00:44;41.48;40.46;42.26;;
67318;Laerm;57664;51.436;5.980;2023-02-11T01:00:54;41.47;40.41;42.33;;
67318;Laerm;57664;51.436;5.980;2023-02-11T01:01:05;41.48;40.60;42.48;;
67318;Laerm;57664;51.436;5.980;2023-02-11T01:01:17;41.51;40.44;42.57;;
67318;Laerm;57664;51.436;5.980;2023-02-11T01:01:34;41.50;40.55;42.35;;
67318;Laerm;57664;51.436;5.980;2023-02-11T01:01:45;41.50;40.51;42.36;;
67318;Laerm;57664;51.436;5.980;2023-02-11T01:01:56;41.49;40.60;42.40;;